Time;durP1;ratioP1;P1;durP2;ratioP2;P2;SDS_P1;SDS_P2;PMS_P1;PMS_P2;Temp;Humidity;BMP_temperature;BMP_pressure;BME280_temperature;BME280_humidity;BME280_pressure;Samples;Min_cycle;Max_cycle;Signal;HPM_P1;HPM_P2
2021/12/11 00:00:24;;;;;;;1.10;1.10;;;-2.70;99.90;;;;;;5064976;28;20063;-85
2021/12/11 00:03:03;;;;;;;0.90;0.90;;;-2.70;99.90;;;;;;5062785;28;20146;-85
2021/12/11 00:05:29;;;;;;;1.00;1.00;;;-2.60;99.90;;;;;;5060724;28;20048;-85
2021/12/11 00:07:56;;;;;;;1.10;1.10;;;-2.60;99.90;;;;;;5047633;28;20154;-85
2021/12/11 00:10:25;;;;;;;0.98;0.98;;;-2.70;99.90;;;;;;5045793;28;20123;-85
2021/12/11 00:12:55;;;;;;;1.00;1.00;;;-2.70;99.90;;;;;;5075893;28;20040;-85
2021/12/11 00:15:31;;;;;;;1.00;1.00;;;-2.70;99.90;;;;;;5048393;28;20139;-85
2021/12/11 00:18:01;;;;;;;1.00;1.00;;;-2.50;99.90;;;;;;5057276;28;20150;-84
2021/12/11 00:20:30;;;;;;;1.10;1.10;;;-2.50;99.90;;;;;;5042231;28;20037;-84
2021/12/11 00:22:56;;;;;;;1.08;1.05;;;-2.70;99.90;;;;;;5063557;28;20070;-83
2021/12/11 00:25:22;;;;;;;1.50;1.40;;;-2.70;99.90;;;;;;5064600;28;20040;-85
2021/12/11 00:27:51;;;;;;;1.00;1.00;;;-2.70;99.90;;;;;;5063427;28;20092;-84
2021/12/11 00:30:30;;;;;;;1.05;1.05;;;-2.70;99.90;;;;;;5060913;28;20059;-85
2021/12/11 00:33:04;;;;;;;1.30;1.20;;;-2.80;99.90;;;;;;5057216;28;20135;-85
2021/12/11 00:35:31;;;;;;;1.17;1.13;;;-2.90;99.90;;;;;;5067570;28;20048;-85
2021/12/11 00:38:06;;;;;;;1.00;1.00;;;-2.90;99.90;;;;;;5066041;28;20051;-85
2021/12/11 00:40:34;;;;;;;1.10;1.10;;;-2.90;99.90;;;;;;5046852;28;20040;-84
2021/12/11 00:43:04;;;;;;;1.30;1.20;;;-2.90;99.90;;;;;;5052563;28;20527;-84
2021/12/11 00:45:35;;;;;;;1.10;1.10;;;-2.90;99.90;;;;;;5047089;28;20051;-84
2021/12/11 00:48:09;;;;;;;1.00;1.00;;;-2.90;99.90;;;;;;5065734;28;20481;-85
2021/12/11 00:51:03;;;;;;;1.30;1.20;;;-2.90;99.90;;;;;;5066054;28;20040;-85
2021/12/11 00:53:52;;;;;;;1.30;1.20;;;-2.90;99.90;;;;;;5040689;28;20080;-85
2021/12/11 00:56:24;;;;;;;1.02;1.02;;;-2.90;99.90;;;;;;5047210;28;20100;-84
2021/12/11 00:58:53;;;;;;;0.90;0.90;;;-2.90;99.90;;;;;;5041225;28;20063;-84
2021/12/11 01:01:27;;;;;;;1.10;1.10;;;-2.90;99.90;;;;;;5064833;28;20043;-85
2021/12/11 01:04:26;;;;;;;1.02;1.02;;;-2.90;99.90;;;;;;5066812;28;20037;-85
2021/12/11 01:06:59;;;;;;;0.93;0.93;;;-2.90;99.90;;;;;;5071263;28;20051;-85
2021/12/11 01:09:30;;;;;;;0.90;0.90;;;-2.80;99.90;;;;;;5059214;28;20041;-86
2021/12/11 01:12:14;;;;;;;1.00;1.00;;;-2.80;99.90;;;;;;5056134;28;20032;-84
2021/12/11 01:15:03;;;;;;;2.28;1.63;;;-2.80;99.90;;;;;;5050137;28;20049;-84
2021/12/11 01:17:40;;;;;;;1.10;1.10;;;-2.90;99.90;;;;;;5072542;28;20036;-85
2021/12/11 01:20:16;;;;;;;1.30;1.25;;;-2.90;99.90;;;;;;5051435;28;20071;-85
2021/12/11 01:22:43;;;;;;;1.00;1.00;;;-2.90;99.90;;;;;;5057000;28;20081;-84
2021/12/11 01:25:15;;;;;;;1.48;1.38;;;-3.00;99.90;;;;;;5056285;28;20041;-84
2021/12/11 01:27:44;;;;;;;1.50;1.40;;;-3.00;99.90;;;;;;5083052;28;20076;-83
2021/12/11 01:30:15;;;;;;;1.52;1.42;;;-3.00;99.90;;;;;;5065229;28;20052;-84
2021/12/11 01:32:41;;;;;;;3.15;2.17;;;-3.00;99.90;;;;;;5062345;28;20064;-85
2021/12/11 01:35:10;;;;;;;1.65;1.55;;;-3.10;99.90;;;;;;5056487;28;20036;-85
2021/12/11 01:37:36;;;;;;;1.65;1.55;;;-3.00;99.90;;;;;;5066803;28;20048;-84
2021/12/11 01:40:06;;;;;;;1.00;1.00;;;-3.00;99.90;;;;;;5062006;28;20392;-84
2021/12/11 01:42:33;;;;;;;1.10;1.10;;;-3.00;99.90;;;;;;5042856;28;20041;-84
2021/12/11 01:45:01;;;;;;;1.30;1.20;;;-3.00;99.90;;;;;;5055099;28;20048;-85
2021/12/11 01:47:31;;;;;;;1.00;1.00;;;-3.00;99.90;;;;;;5057419;28;20032;-84
2021/12/11 01:50:04;;;;;;;1.30;1.20;;;-3.00;99.90;;;;;;5051548;28;20045;-84
2021/12/11 01:52:38;;;;;;;2.28;1.55;;;-3.00;99.90;;;;;;5046684;28;20087;-84
2021/12/11 01:55:10;;;;;;;1.00;1.00;;;-3.00;99.90;;;;;;5064045;28;20045;-84
2021/12/11 01:57:37;;;;;;;2.55;2.08;;;-3.10;99.90;;;;;;5045823;28;20044;-84
2021/12/11 02:00:12;;;;;;;3.50;1.63;;;-3.10;99.90;;;;;;5046844;28;20040;-85
2021/12/11 02:02:47;;;;;;;1.10;1.10;;;-3.10;99.90;;;;;;5063440;28;20079;-84
2021/12/11 02:05:19;;;;;;;1.00;1.00;;;-3.10;99.90;;;;;;5063708;28;20040;-85
2021/12/11 02:07:49;;;;;;;1.00;1.00;;;-3.10;99.90;;;;;;5068268;28;20044;-85
2021/12/11 02:10:19;;;;;;;1.00;1.00;;;-3.20;99.90;;;;;;5063332;28;20044;-86
2021/12/11 02:12:46;;;;;;;9.30;3.80;;;-3.20;99.90;;;;;;5059159;28;20043;-85
2021/12/11 02:15:20;;;;;;;1.33;1.23;;;-3.20;99.90;;;;;;5047597;28;20087;-85
2021/12/11 02:18:09;;;;;;;1.00;1.00;;;-3.20;99.90;;;;;;5048903;28;20044;-85
2021/12/11 02:20:41;;;;;;;1.13;1.10;;;-3.20;99.90;;;;;;5047743;28;20044;-85
2021/12/11 02:23:07;;;;;;;2.88;1.73;;;-3.20;99.90;;;;;;5041926;28;20075;-85
2021/12/11 02:25:39;;;;;;;1.25;1.20;;;-3.20;99.90;;;;;;5044320;28;20059;-85
2021/12/11 02:28:23;;;;;;;1.15;1.13;;;-3.20;99.90;;;;;;5049187;28;20104;-84
2021/12/11 02:31:05;;;;;;;1.10;1.10;;;-3.20;99.90;;;;;;5047766;28;20044;-84
2021/12/11 02:33:33;;;;;;;1.10;1.10;;;-3.20;99.90;;;;;;5060684;28;20123;-84
2021/12/11 02:36:18;;;;;;;1.00;1.00;;;-3.20;99.90;;;;;;5064433;28;20095;-84
2021/12/11 02:38:44;;;;;;;1.33;1.23;;;;;;;;;;5059176;28;20071;-85
2021/12/11 02:41:10;;;;;;;1.65;1.55;;;;;;;;;;5062602;28;20040;-84
2021/12/11 02:43:58;;;;;;;1.10;1.10;;;-3.20;99.90;;;;;;5039421;28;20033;-85
2021/12/11 02:46:29;;;;;;;0.90;0.90;;;-3.20;99.90;;;;;;5053065;28;20036;-85
2021/12/11 02:48:58;;;;;;;1.48;1.38;;;-3.20;99.90;;;;;;5061460;28;20067;-85
2021/12/11 02:51:36;;;;;;;1.30;1.25;;;-2.80;99.90;;;;;;5064473;28;20043;-85
2021/12/11 02:54:11;;;;;;;0.93;0.93;;;-3.10;99.90;;;;;;5049905;28;20166;-85
2021/12/11 02:56:44;;;;;;;1.05;1.05;;;-3.10;99.90;;;;;;5057513;28;20048;-85
2021/12/11 02:59:17;;;;;;;1.40;1.30;;;-3.20;99.90;;;;;;5066240;28;20072;-85
2021/12/11 03:02:02;;;;;;;1.02;1.02;;;-3.20;99.90;;;;;;5067622;28;20197;-84
2021/12/11 03:04:35;;;;;;;1.80;1.70;;;-3.10;99.90;;;;;;5068419;28;20059;-84
2021/12/11 03:07:06;;;;;;;1.40;1.30;;;-3.10;99.90;;;;;;5073483;28;20036;-84
2021/12/11 03:09:35;;;;;;;1.30;1.20;;;-3.10;99.90;;;;;;5066125;28;20124;-84
2021/12/11 03:12:06;;;;;;;1.10;1.10;;;-3.10;99.90;;;;;;5062883;28;20071;-84
2021/12/11 03:14:31;;;;;;;1.05;1.05;;;-3.10;99.90;;;;;;5050122;28;20052;-84
2021/12/11 03:16:57;;;;;;;1.10;1.10;;;-3.20;99.90;;;;;;5065648;28;20032;-84
2021/12/11 03:19:29;;;;;;;2.50;2.30;;;-3.20;99.90;;;;;;5052685;28;20141;-84
2021/12/11 03:21:55;;;;;;;1.23;1.13;;;-3.40;99.90;;;;;;5073260;28;20037;-85
2021/12/11 03:24:21;;;;;;;1.40;1.30;;;-3.30;99.90;;;;;;5070632;28;20040;-84
2021/12/11 03:26:50;;;;;;;1.85;1.75;;;-3.50;99.90;;;;;;5066975;28;20044;-85
2021/12/11 03:29:16;;;;;;;1.60;1.50;;;-3.50;99.90;;;;;;5060267;28;20068;-84
2021/12/11 03:31:43;;;;;;;1.30;1.20;;;-3.50;99.90;;;;;;5074766;28;20044;-84
2021/12/11 03:34:14;;;;;;;1.17;1.13;;;-3.50;99.90;;;;;;5065384;28;20036;-85
2021/12/11 03:36:41;;;;;;;1.20;1.20;;;-3.50;99.90;;;;;;5071424;28;20048;-85
2021/12/11 03:39:20;;;;;;;1.02;1.02;;;-3.50;99.90;;;;;;5068823;28;20075;-85
2021/12/11 03:41:48;;;;;;;1.10;1.10;;;-3.50;99.90;;;;;;5047514;28;20043;-85
2021/12/11 03:44:14;;;;;;;1.98;1.88;;;-3.50;99.90;;;;;;5050862;28;20032;-85
2021/12/11 03:46:41;;;;;;;0.95;0.95;;;-3.50;99.90;;;;;;5066509;28;20045;-85
2021/12/11 03:49:10;;;;;;;1.30;1.20;;;-3.50;99.90;;;;;;5073907;28;20116;-84
2021/12/11 03:51:41;;;;;;;1.65;1.55;;;-3.50;99.90;;;;;;5048315;28;20404;-85
2021/12/11 03:54:09;;;;;;;2.00;1.88;;;-3.50;99.90;;;;;;5066366;28;20044;-84
2021/12/11 03:56:36;;;;;;;1.10;1.10;;;-3.50;99.90;;;;;;5084792;28;20052;-85
2021/12/11 03:59:09;;;;;;;1.70;1.60;;;-3.50;99.90;;;;;;5067710;28;20123;-84
2021/12/11 04:01:43;;;;;;;1.10;1.10;;;-3.50;99.90;;;;;;5035451;28;20064;-84
2021/12/11 04:04:11;;;;;;;;;;;-3.50;99.90;;;;;;5058793;28;20055;-85
2021/12/11 04:06:37;;;;;;;1.40;1.30;;;-3.50;99.90;;;;;;5050172;28;19971;-84
2021/12/11 04:09:06;;;;;;;2.10;1.90;;;-3.50;99.90;;;;;;5067793;28;20036;-84
2021/12/11 04:11:34;;;;;;;0.90;0.90;;;-3.40;99.90;;;;;;5059718;28;20097;-84
2021/12/11 04:14:05;;;;;;;1.48;1.38;;;-3.40;99.90;;;;;;5061530;28;20049;-84
2021/12/11 04:16:32;;;;;;;1.25;1.15;;;-3.50;99.90;;;;;;5048431;28;20455;-85
2021/12/11 04:18:58;;;;;;;4.63;2.45;;;-3.40;99.90;;;;;;5063049;28;20033;-84
2021/12/11 04:21:24;;;;;;;3.15;2.22;;;-3.30;99.90;;;;;;5069831;28;20047;-84
2021/12/11 04:23:50;;;;;;;1.25;1.23;;;-2.90;99.90;;;;;;5081846;28;20049;-84
2021/12/11 04:26:17;;;;;;;3.78;3.45;;;-3.30;99.90;;;;;;5068502;28;20040;-84
2021/12/11 04:28:46;;;;;;;4.13;2.20;;;-3.30;99.90;;;;;;5053923;28;20055;-84
2021/12/11 04:31:18;;;;;;;1.40;1.30;;;-3.30;99.90;;;;;;5067150;28;20055;-84
2021/12/11 04:33:47;;;;;;;1.30;1.20;;;-3.40;99.90;;;;;;5063824;28;20033;-84
2021/12/11 04:36:19;;;;;;;1.30;1.20;;;-3.50;99.90;;;;;;5046723;28;20045;-84
2021/12/11 04:38:45;;;;;;;1.10;1.10;;;-3.50;99.90;;;;;;5062701;28;20126;-84
2021/12/11 04:41:22;;;;;;;1.13;1.13;;;-3.50;99.90;;;;;;5067209;28;20055;-84
2021/12/11 04:43:49;;;;;;;1.48;1.38;;;-3.50;99.90;;;;;;5047232;28;20120;-84
2021/12/11 04:46:15;;;;;;;1.10;1.10;;;-3.50;99.90;;;;;;5063804;28;20044;-84
2021/12/11 04:49:09;;;;;;;1.02;1.02;;;-3.50;99.90;;;;;;5045964;28;20063;-84
2021/12/11 04:51:51;;;;;;;1.30;1.20;;;-3.50;99.90;;;;;;5063371;28;20142;-84
2021/12/11 04:57:24;;;;;;;1.10;1.10;;;-3.50;99.90;;;;;;5063126;28;20080;-84
2021/12/11 05:00:05;;;;;;;;;;;-3.50;99.90;;;;;;5063397;28;20058;-84
2021/12/11 05:02:57;;;;;;;1.30;1.20;;;-3.60;99.90;;;;;;5045445;28;19936;-84
2021/12/11 05:11:06;;;;;;;1.17;1.10;;;-3.60;99.90;;;;;;5058260;28;20048;-83
2021/12/11 05:13:33;;;;;;;1.17;1.10;;;-3.60;99.90;;;;;;5056549;28;20087;-83
2021/12/11 05:16:05;;;;;;;1.10;1.10;;;-3.60;99.90;;;;;;5074292;28;20063;-83
2021/12/11 05:18:33;;;;;;;1.30;1.20;;;-3.60;99.90;;;;;;5062136;28;20120;-83
2021/12/11 05:21:02;;;;;;;1.23;1.17;;;-3.60;99.90;;;;;;5057100;28;20045;-83
2021/12/11 05:23:29;;;;;;;1.55;1.45;;;-3.60;99.90;;;;;;5059374;28;20104;-84
2021/12/11 05:25:55;;;;;;;1.10;1.10;;;-3.60;99.90;;;;;;5045097;28;20142;-83
2021/12/11 05:28:21;;;;;;;1.83;1.73;;;-3.60;99.90;;;;;;5062615;28;20044;-84
2021/12/11 05:30:51;;;;;;;1.10;1.10;;;-3.70;99.90;;;;;;5058029;28;20071;-84
2021/12/11 05:33:18;;;;;;;2.42;2.28;;;-3.60;99.90;;;;;;5043816;28;20127;-83
2021/12/11 05:35:44;;;;;;;1.10;1.10;;;-3.60;99.90;;;;;;5045489;28;20135;-84
2021/12/11 05:38:12;;;;;;;1.10;1.10;;;-3.70;99.90;;;;;;5043441;28;20098;-84
2021/12/11 05:40:42;;;;;;;1.83;1.73;;;-3.70;99.90;;;;;;5046005;28;20040;-84
2021/12/11 05:43:08;;;;;;;1.27;1.20;;;-3.70;99.90;;;;;;5045278;28;20041;-84
2021/12/11 05:45:35;;;;;;;1.25;1.17;;;-3.70;99.90;;;;;;5062606;28;20046;-83
2021/12/11 05:48:02;;;;;;;1.10;1.10;;;-3.70;99.90;;;;;;5060783;28;20044;-83
2021/12/11 05:50:32;;;;;;;1.83;1.73;;;-3.70;99.90;;;;;;5045976;28;20093;-82
2021/12/11 05:52:58;;;;;;;1.40;1.30;;;-3.80;99.90;;;;;;5062100;28;20060;-83
2021/12/11 05:55:25;;;;;;;1.10;1.10;;;-3.80;99.90;;;;;;5081025;28;20059;-83
2021/12/11 05:57:54;;;;;;;1.15;1.10;;;-3.80;99.90;;;;;;5061883;28;20078;-82
2021/12/11 06:00:28;;;;;;;1.30;1.20;;;-3.80;99.90;;;;;;5046574;28;20048;-83
2021/12/11 06:02:55;;;;;;;1.42;1.33;;;-3.80;99.90;;;;;;5057814;28;20033;-82
2021/12/11 06:05:22;;;;;;;1.20;1.13;;;-3.80;99.90;;;;;;5062995;28;20441;-83
2021/12/11 06:07:47;;;;;;;1.10;1.10;;;-3.80;99.90;;;;;;5045124;28;20044;-83
2021/12/11 06:10:18;;;;;;;1.05;1.05;;;-3.80;99.90;;;;;;5046988;28;20456;-82
2021/12/11 06:12:46;;;;;;;1.40;1.30;;;-3.80;99.90;;;;;;5057280;28;20863;-83
2021/12/11 06:15:12;;;;;;;1.00;1.00;;;-3.90;99.90;;;;;;5042631;28;20122;-84
2021/12/11 06:17:41;;;;;;;1.00;1.00;;;-3.90;99.90;;;;;;5041854;28;20036;-84
2021/12/11 06:20:09;;;;;;;1.13;1.08;;;-3.80;99.90;;;;;;5062420;28;20040;-84
2021/12/11 06:22:36;;;;;;;1.40;1.30;;;-3.80;99.90;;;;;;5045406;28;20199;-82
2021/12/11 06:25:10;;;;;;;1.70;1.60;;;-3.70;99.90;;;;;;5080059;28;20056;-83
2021/12/11 06:27:36;;;;;;;1.15;1.13;;;-3.80;99.90;;;;;;5062231;28;20045;-84
2021/12/11 06:30:04;;;;;;;1.15;1.10;;;-3.80;99.90;;;;;;5062677;28;20048;-83
2021/12/11 06:32:30;;;;;;;3.13;2.40;;;-3.80;99.90;;;;;;5067900;28;20041;-84
2021/12/11 06:34:58;;;;;;;1.10;1.10;;;-3.80;99.90;;;;;;5044182;28;20478;-83
2021/12/11 06:37:24;;;;;;;1.00;1.00;;;-3.80;99.90;;;;;;5063934;28;20040;-83
2021/12/11 06:39:51;;;;;;;3.70;1.98;;;;;;;;;;5062377;28;20044;-84
2021/12/11 06:42:19;;;;;;;1.08;1.08;;;-3.80;99.90;;;;;;5065960;28;20040;-84
2021/12/11 06:44:46;;;;;;;1.00;1.00;;;-3.80;99.90;;;;;;5065562;28;20070;-83
2021/12/11 06:47:14;;;;;;;1.10;1.10;;;-3.80;99.90;;;;;;5066172;28;20526;-84
2021/12/11 06:49:40;;;;;;;1.30;1.20;;;-3.80;99.90;;;;;;5065758;28;20127;-84
2021/12/11 06:52:12;;;;;;;1.30;1.20;;;-3.80;99.90;;;;;;5048717;28;20079;-84
2021/12/11 06:54:38;;;;;;;0.93;0.93;;;-3.80;99.90;;;;;;5047159;28;20043;-85
2021/12/11 06:57:04;;;;;;;1.27;1.17;;;-3.80;99.90;;;;;;5064548;28;20536;-85
2021/12/11 06:59:30;;;;;;;1.25;1.17;;;-3.80;99.90;;;;;;5083317;28;20048;-84
2021/12/11 07:01:55;;;;;;;1.08;1.05;;;-3.80;99.90;;;;;;5064567;28;20090;-84
2021/12/11 07:04:21;;;;;;;1.63;1.52;;;;;;;;;;5064929;28;20051;-85
2021/12/11 07:06:52;;;;;;;1.10;1.10;;;-3.80;99.90;;;;;;5048408;28;20055;-84
2021/12/11 07:09:23;;;;;;;1.15;1.10;;;-3.80;99.90;;;;;;5067186;28;20046;-85
2021/12/11 07:11:52;;;;;;;1.02;1.02;;;-3.80;99.90;;;;;;5067971;28;20068;-84
2021/12/11 07:14:19;;;;;;;10.13;2.40;;;-3.90;99.90;;;;;;5048501;28;20037;-84
2021/12/11 07:16:45;;;;;;;1.00;1.00;;;-3.90;99.90;;;;;;5048635;28;20041;-84
2021/12/11 07:19:11;;;;;;;1.77;1.67;;;-3.90;99.90;;;;;;5065054;28;20043;-84
2021/12/11 07:21:38;;;;;;;1.15;1.10;;;-3.90;99.90;;;;;;5049068;28;20056;-85
2021/12/11 07:24:07;;;;;;;1.40;1.30;;;-3.90;99.90;;;;;;5066214;28;20076;-83
2021/12/11 07:26:34;;;;;;;1.23;1.13;;;-3.90;99.90;;;;;;5064646;28;20091;-84
2021/12/11 07:29:15;;;;;;;1.00;1.00;;;-3.90;99.90;;;;;;5065175;28;20044;-84
2021/12/11 07:31:44;;;;;;;1.95;1.85;;;-3.80;99.90;;;;;;5069924;28;20036;-84
2021/12/11 07:34:10;;;;;;;1.30;1.20;;;-3.80;99.90;;;;;;5067725;28;20036;-84
2021/12/11 07:36:37;;;;;;;2.92;2.70;;;-3.80;99.90;;;;;;5064476;28;20087;-84
2021/12/11 07:39:08;;;;;;;1.00;1.00;;;-3.80;99.90;;;;;;5082308;28;20040;-83
2021/12/11 07:41:34;;;;;;;1.20;1.10;;;-3.80;99.90;;;;;;5034934;28;20047;-83
2021/12/11 07:43:59;;;;;;;1.27;1.20;;;-3.80;99.90;;;;;;5069979;28;20104;-83
2021/12/11 07:46:28;;;;;;;1.15;1.10;;;-3.80;99.90;;;;;;5065823;28;20044;-83
2021/12/11 07:48:54;;;;;;;1.00;1.00;;;-3.70;99.90;;;;;;5082974;28;20450;-83
2021/12/11 07:51:22;;;;;;;1.20;1.10;;;-3.70;99.90;;;;;;5066067;28;20123;-83
2021/12/11 07:53:49;;;;;;;1.55;1.45;;;-3.70;99.90;;;;;;5047093;28;20051;-83
2021/12/11 07:56:17;;;;;;;1.40;1.30;;;-3.70;99.90;;;;;;5069422;28;20127;-83
2021/12/11 07:58:44;;;;;;;2.63;1.50;;;-3.60;99.90;;;;;;5086218;28;20473;-83
2021/12/11 08:01:09;;;;;;;2.15;1.95;;;-3.60;99.90;;;;;;5082885;28;20111;-83
2021/12/11 08:03:36;;;;;;;1.95;1.85;;;-3.60;99.90;;;;;;5062603;28;20143;-83
2021/12/11 08:06:03;;;;;;;1.40;1.30;;;-3.60;99.90;;;;;;5063859;28;20056;-83
2021/12/11 08:08:29;;;;;;;1.05;1.05;;;-3.60;99.90;;;;;;5064351;28;20071;-84
2021/12/11 08:10:58;;;;;;;1.10;1.10;;;-3.50;99.90;;;;;;5065486;28;20129;-83
2021/12/11 08:13:24;;;;;;;1.50;1.40;;;-3.50;99.90;;;;;;5065017;28;20040;-83
2021/12/11 08:15:50;;;;;;;1.50;1.40;;;-3.50;99.90;;;;;;5063918;28;20051;-82
2021/12/11 08:18:17;;;;;;;1.30;1.20;;;-3.50;99.90;;;;;;5086363;28;20044;-82
2021/12/11 08:20:45;;;;;;;1.40;1.30;;;-3.50;99.90;;;;;;5061163;28;20064;-82
2021/12/11 08:23:13;;;;;;;1.10;1.10;;;-3.40;99.90;;;;;;5061297;28;20139;-83
2021/12/11 08:25:40;;;;;;;1.10;1.10;;;-3.40;99.90;;;;;;5036525;28;20067;-83
2021/12/11 08:28:08;;;;;;;1.67;1.52;;;-3.40;99.90;;;;;;5040945;28;20044;-83
2021/12/11 08:30:36;;;;;;;0.98;0.98;;;-3.40;99.90;;;;;;5050593;28;20041;-82
2021/12/11 08:33:01;;;;;;;1.98;1.88;;;-3.30;99.90;;;;;;5079113;28;20044;-82
2021/12/11 08:35:27;;;;;;;1.50;1.40;;;-3.30;99.90;;;;;;5082299;28;20124;-83
2021/12/11 08:37:53;;;;;;;1.40;1.30;;;-3.30;99.90;;;;;;5063853;28;20044;-83
2021/12/11 08:40:31;;;;;;;1.15;1.13;;;-3.30;99.90;;;;;;5064381;28;20051;-82
2021/12/11 08:42:58;;;;;;;1.10;1.10;;;-3.20;99.90;;;;;;5063379;28;20056;-82
2021/12/11 08:45:36;;;;;;;1.10;1.10;;;-3.20;99.90;;;;;;5064345;28;20062;-83
2021/12/11 08:48:02;;;;;;;1.13;1.10;;;-3.20;99.90;;;;;;5063062;28;20044;-83
2021/12/11 08:50:31;;;;;;;1.25;1.17;;;-2.40;99.90;;;;;;5064139;28;20051;-83
2021/12/11 08:52:58;;;;;;;1.40;1.30;;;-3.10;99.90;;;;;;5063316;28;20040;-84
2021/12/11 08:55:31;;;;;;;1.85;1.75;;;-3.10;99.90;;;;;;5064194;28;20052;-83
2021/12/11 08:57:59;;;;;;;1.70;1.60;;;-3.00;99.90;;;;;;5061826;28;20040;-83
2021/12/11 09:00:44;;;;;;;1.85;1.52;;;-2.80;99.90;;;;;;5065780;28;20103;-84
2021/12/11 09:03:09;;;;;;;1.15;1.13;;;-2.90;99.90;;;;;;5059133;28;20045;-83
2021/12/11 09:05:49;;;;;;;1.02;1.02;;;-2.80;99.90;;;;;;5063455;28;20045;-84
2021/12/11 09:08:30;;;;;;;1.77;1.67;;;-2.80;99.90;;;;;;5063765;28;20047;-84
2021/12/11 09:11:25;;;;;;;1.67;1.58;;;-2.70;99.90;;;;;;5062750;28;20040;-84
2021/12/11 09:13:57;;;;;;;1.42;1.33;;;-2.60;99.90;;;;;;5041616;28;20189;-84
2021/12/11 09:16:28;;;;;;;1.13;1.13;;;-2.60;99.90;;;;;;5071975;28;20110;-83
2021/12/11 09:19:15;;;;;;;1.48;1.38;;;-2.60;99.90;;;;;;5062606;28;20054;-84
2021/12/11 09:22:20;;;;;;;1.30;1.20;;;-2.50;99.90;;;;;;5063629;28;20049;-84
2021/12/11 09:24:51;;;;;;;1.00;1.00;;;-2.40;99.90;;;;;;5034741;28;20053;-84
2021/12/11 09:27:23;;;;;;;1.55;1.45;;;-2.40;99.90;;;;;;5044376;28;20076;-84
2021/12/11 09:29:55;;;;;;;2.78;2.10;;;-2.30;99.90;;;;;;5063323;28;20042;-84
2021/12/11 09:32:24;;;;;;;1.10;1.10;;;-2.20;99.90;;;;;;5076672;28;20107;-85
2021/12/11 09:34:59;;;;;;;1.00;1.00;;;-2.10;99.90;;;;;;5046135;28;20090;-84
2021/12/11 09:37:26;;;;;;;1.10;1.10;;;-2.00;99.90;;;;;;5081339;28;20044;-84
2021/12/11 09:40:07;;;;;;;1.55;1.45;;;-2.00;99.90;;;;;;5063177;28;20112;-84
2021/12/11 09:42:32;;;;;;;1.55;1.45;;;-1.90;99.90;;;;;;5062287;28;20040;-84
2021/12/11 09:45:15;;;;;;;2.80;2.28;;;-1.20;99.90;;;;;;5041909;28;20075;-84
2021/12/11 09:47:50;;;;;;;1.05;1.05;;;-1.80;99.90;;;;;;5042825;28;20040;-84
2021/12/11 09:50:23;;;;;;;1.90;1.80;;;-1.70;99.90;;;;;;5068271;28;20115;-84
2021/12/11 09:52:51;;;;;;;1.55;1.45;;;-1.70;99.90;;;;;;5061104;28;20037;-83
2021/12/11 09:55:25;;;;;;;1.42;1.33;;;-1.40;99.90;;;;;;5060864;28;20075;-84
2021/12/11 09:58:00;;;;;;;1.42;1.33;;;-1.50;99.90;;;;;;5045438;28;20445;-84
2021/12/11 10:01:04;;;;;;;1.05;1.05;;;-1.50;99.90;;;;;;5060943;28;20044;-84
2021/12/11 10:03:34;;;;;;;1.23;1.13;;;-1.50;99.90;;;;;;5026409;28;20131;-84
2021/12/11 10:06:12;;;;;;;1.00;1.00;;;-1.40;99.90;;;;;;5064945;28;20135;-83
2021/12/11 10:08:42;;;;;;;1.08;1.08;;;-1.30;99.90;;;;;;5067139;28;20659;-83
2021/12/11 10:11:21;;;;;;;1.25;1.20;;;-1.20;99.90;;;;;;5062114;28;20056;-83
2021/12/11 10:13:49;;;;;;;1.60;1.50;;;-1.20;99.90;;;;;;5065715;28;20094;-82
2021/12/11 10:16:18;;;;;;;1.40;1.30;;;-1.10;99.90;;;;;;5087718;28;20464;-83
2021/12/11 10:18:45;;;;;;;1.70;1.60;;;-1.00;99.90;;;;;;5065565;28;20104;-84
2021/12/11 10:21:19;;;;;;;1.38;1.27;;;-1.00;99.90;;;;;;5067296;28;20032;-84
2021/12/11 10:23:48;;;;;;;1.17;1.17;;;-1.00;99.90;;;;;;5065659;28;20116;-83
2021/12/11 10:26:16;;;;;;;1.15;1.13;;;-0.90;99.90;;;;;;5066810;28;20111;-84
2021/12/11 10:28:46;;;;;;;1.00;1.00;;;-0.90;99.90;;;;;;5065949;28;20132;-84
2021/12/11 10:31:23;;;;;;;1.80;1.70;;;-0.80;99.90;;;;;;5066894;28;20040;-84
2021/12/11 10:33:49;;;;;;;1.23;1.20;;;-0.60;99.90;;;;;;5064991;28;20059;-83
2021/12/11 10:36:20;;;;;;;1.40;1.30;;;-0.80;99.90;;;;;;5070803;28;20572;-84
2021/12/11 10:38:47;;;;;;;0.93;0.93;;;-0.70;99.90;;;;;;5084352;28;20087;-84
2021/12/11 10:41:15;;;;;;;1.40;1.30;;;-0.60;99.90;;;;;;5050122;28;20051;-83
2021/12/11 10:44:03;;;;;;;1.00;1.00;;;-0.50;99.90;;;;;;5066143;28;20516;-83
2021/12/11 10:46:32;;;;;;;1.10;1.10;;;-0.50;99.90;;;;;;5074018;28;20045;-83
2021/12/11 10:49:01;;;;;;;1.10;1.10;;;-0.30;99.90;;;;;;5048704;28;20040;-84
2021/12/11 10:51:33;;;;;;;0.90;0.90;;;-0.30;99.90;;;;;;5049835;28;20041;-82
2021/12/11 10:53:59;;;;;;;0.98;0.98;;;-0.30;99.90;;;;;;5053795;28;20153;-83
2021/12/11 10:56:26;;;;;;;1.00;1.00;;;-0.20;99.90;;;;;;5061748;28;20036;-84
2021/12/11 10:58:59;;;;;;;1.08;1.05;;;-0.10;99.90;;;;;;5064641;28;20037;-83
2021/12/11 11:01:31;;;;;;;1.10;1.10;;;0.00;99.90;;;;;;5061496;28;20040;-83
2021/12/11 11:04:07;;;;;;;1.10;1.10;;;0.10;99.90;;;;;;5064599;28;20035;-83
2021/12/11 11:06:34;;;;;;;0.95;0.95;;;0.10;99.90;;;;;;5046221;28;20064;-83
2021/12/11 11:09:00;;;;;;;1.10;1.10;;;0.20;99.90;;;;;;5066456;28;20136;-84
2021/12/11 11:11:30;;;;;;;0.90;0.90;;;0.30;99.90;;;;;;5066304;28;20040;-84
2021/12/11 11:13:56;;;;;;;1.73;1.63;;;0.40;99.90;;;;;;5060475;28;20036;-85
2021/12/11 11:16:23;;;;;;;1.00;1.00;;;0.40;99.90;;;;;;5052107;28;20041;-85
2021/12/11 11:18:50;;;;;;;1.92;1.17;;;0.50;99.90;;;;;;5048110;28;20047;-84
2021/12/11 11:21:24;;;;;;;2.00;1.90;;;0.60;99.90;;;;;;5052222;28;20055;-85
2021/12/11 11:23:53;;;;;;;2.25;1.55;;;0.80;99.90;;;;;;5064949;28;20072;-85
2021/12/11 11:26:25;;;;;;;1.73;1.63;;;1.00;99.90;;;;;;5063456;28;20040;-84
2021/12/11 11:28:52;;;;;;;1.65;1.55;;;1.10;99.90;;;;;;5047223;28;20041;-84
2021/12/11 11:31:27;;;;;;;1.10;1.00;;;1.30;99.90;;;;;;5065322;28;20055;-83
2021/12/11 11:33:53;;;;;;;2.50;2.05;;;1.50;99.90;;;;;;5062754;28;20604;-84
2021/12/11 11:36:23;;;;;;;1.45;1.35;;;1.60;99.90;;;;;;5064263;28;20040;-84
2021/12/11 11:38:52;;;;;;;4.70;1.92;;;1.60;99.90;;;;;;5046962;28;20059;-84
2021/12/11 11:41:21;;;;;;;2.35;2.17;;;1.70;99.90;;;;;;5057473;28;20041;-85
2021/12/11 11:43:47;;;;;;;1.90;1.80;;;1.80;99.90;;;;;;5063347;28;20036;-85
2021/12/11 11:46:15;;;;;;;2.25;1.70;;;1.80;99.90;;;;;;5064269;28;20036;-84
2021/12/11 11:48:44;;;;;;;1.27;1.20;;;1.80;99.90;;;;;;5050062;28;20047;-84
2021/12/11 11:51:14;;;;;;;1.20;1.15;;;1.70;99.90;;;;;;5048737;28;20044;-84
2021/12/11 11:53:40;;;;;;;0.90;0.90;;;1.80;99.90;;;;;;5076365;28;20079;-85
2021/12/11 11:56:14;;;;;;;1.10;1.10;;;1.70;99.90;;;;;;5066214;28;20154;-85
2021/12/11 11:58:41;;;;;;;5.38;2.85;;;1.80;99.90;;;;;;5040816;28;20044;-84
2021/12/11 12:01:15;;;;;;;1.05;1.05;;;1.80;99.90;;;;;;5047161;28;20040;-84
2021/12/11 12:03:41;;;;;;;1.33;1.23;;;1.80;99.90;;;;;;5046795;28;20123;-84
2021/12/11 12:06:12;;;;;;;2.88;2.30;;;1.80;99.90;;;;;;5063354;28;20044;-84
2021/12/11 12:08:40;;;;;;;0.80;0.80;;;1.90;99.90;;;;;;5052137;28;20101;-85
2021/12/11 12:11:06;;;;;;;1.13;1.05;;;1.90;99.90;;;;;;5049099;28;20058;-85
2021/12/11 12:13:33;;;;;;;9.27;7.30;;;1.90;99.90;;;;;;5082989;28;20043;-84
2021/12/11 12:16:04;;;;;;;2.20;2.10;;;2.10;99.90;;;;;;5046881;28;20076;-85
2021/12/11 12:18:31;;;;;;;1.00;1.00;;;2.00;99.90;;;;;;5058636;28;20064;-84
2021/12/11 12:20:58;;;;;;;5.43;2.00;;;2.10;99.90;;;;;;5065730;28;20669;-84
2021/12/11 12:23:31;;;;;;;2.45;2.13;;;2.10;99.90;;;;;;5038324;28;20412;-84
2021/12/11 12:25:58;;;;;;;3.70;1.73;;;2.10;99.90;;;;;;5035855;28;20097;-85
2021/12/11 12:28:24;;;;;;;0.90;0.90;;;2.10;99.90;;;;;;5062726;28;20029;-84
2021/12/11 12:31:05;;;;;;;0.95;0.95;;;2.10;99.90;;;;;;5062537;28;20056;-84
2021/12/11 12:33:32;;;;;;;1.92;1.60;;;2.10;99.90;;;;;;5061000;28;20101;-84
2021/12/11 12:35:58;;;;;;;12.82;1.88;;;2.10;99.90;;;;;;5055502;28;20037;-84
2021/12/11 12:38:27;;;;;;;1.38;1.27;;;2.10;99.90;;;;;;5063120;28;20079;-84
2021/12/11 12:41:06;;;;;;;1.42;1.33;;;2.10;99.90;;;;;;5051064;28;20101;-84
2021/12/11 12:46:13;;;;;;;1.33;1.23;;;2.20;99.90;;;;;;5069416;28;20044;-84
2021/12/11 12:48:39;;;;;;;1.40;1.30;;;2.30;99.90;;;;;;5066456;28;20140;-84
2021/12/11 12:51:07;;;;;;;1.45;1.35;;;2.30;99.90;;;;;;5064012;28;20048;-83
2021/12/11 12:53:34;;;;;;;0.90;0.90;;;2.30;99.90;;;;;;5065878;28;21676;-83
2021/12/11 12:56:11;;;;;;;1.40;1.30;;;2.30;99.90;;;;;;5063455;28;20048;-85
2021/12/11 12:59:04;;;;;;;2.83;2.63;;;2.20;99.90;;;;;;5064996;28;20104;-83
2021/12/11 13:01:38;;;;;;;1.40;1.30;;;2.30;99.90;;;;;;5063667;28;20052;-83
2021/12/11 13:04:06;;;;;;;;;;;2.40;99.90;;;;;;5091062;28;20066;-83
2021/12/11 13:06:37;;;;;;;1.45;1.35;;;2.60;99.90;;;;;;5063740;28;19924;-83
2021/12/11 13:09:15;;;;;;;2.75;2.55;;;2.70;99.90;;;;;;5051904;28;20043;-84
2021/12/11 13:11:57;;;;;;;0.98;0.98;;;2.80;99.90;;;;;;5065087;28;20158;-84
2021/12/11 13:14:25;;;;;;;4.75;2.35;;;2.90;99.90;;;;;;5064305;28;20115;-84
2021/12/11 13:16:54;;;;;;;1.80;1.25;;;3.00;99.90;;;;;;5068473;28;20120;-84
2021/12/11 13:19:26;;;;;;;1.45;1.35;;;3.00;99.90;;;;;;5065192;28;20050;-84